Time;durP1;ratioP1;P1;durP2;ratioP2;P2;SDS_P1;SDS_P2;PMS_P1;PMS_P2;Temp;Humidity;BMP_temperature;BMP_pressure;BME280_temperature;BME280_humidity;BME280_pressure;Samples;Min_cycle;Max_cycle;Signal;HPM_P1;HPM_P2
2022/01/14 00:00:04;;;;;;;2.33;2.10;;;;;;;-1.96;63.71;100381.66;6216742;23;20722;-88
2022/01/14 00:02:30;;;;;;;9.97;4.17;;;;;;;-2.15;63.66;100382.16;6216664;23;20150;-88
2022/01/14 00:04:55;;;;;;;9.30;3.10;;;;;;;-2.20;64.07;100390.66;6216646;23;20455;-88
2022/01/14 00:07:21;;;;;;;7.57;5.07;;;;;;;-2.14;64.04;100388.16;6191240;23;20475;-88
2022/01/14 00:09:47;;;;;;;8.10;4.33;;;;;;;-2.12;63.61;100379.66;6190399;23;20179;-88
2022/01/14 00:12:18;;;;;;;7.40;4.13;;;;;;;-2.02;63.79;100383.25;6216269;23;20459;-88
2022/01/14 00:14:57;;;;;;;15.53;5.43;;;;;;;-1.98;63.00;100378.19;6190332;23;20396;-88
2022/01/14 00:17:22;;;;;;;17.87;5.07;;;;;;;-1.76;62.37;100373.44;6190470;23;20460;-88
2022/01/14 00:19:48;;;;;;;6.23;4.30;;;;;;;-1.57;60.63;100371.16;6216626;23;20401;-88
2022/01/14 00:22:17;;;;;;;6.50;3.67;;;;;;;-1.50;60.73;100372.13;6217273;23;20503;-87
2022/01/14 00:33:16;;;;;;;7.57;4.67;;;;;;;-1.49;59.02;100397.84;6159796;23;20381;-87
2022/01/14 00:35:42;;;;;;;4.03;2.90;;;;;;;-1.38;59.06;100396.31;6190249;23;20512;-87
2022/01/14 00:38:12;;;;;;;4.80;3.17;;;;;;;-1.35;59.01;100398.06;6190208;23;20424;-87
2022/01/14 00:40:38;;;;;;;2.80;2.37;;;;;;;-1.44;59.08;100390.22;6217203;23;20137;-87
2022/01/14 00:43:04;;;;;;;3.67;1.50;;;;;;;-1.68;59.07;100390.72;6216412;23;20373;-87
2022/01/14 00:45:30;;;;;;;10.67;3.83;;;;;;;-1.76;60.10;100387.16;6190187;23;20555;-87
2022/01/14 00:47:56;;;;;;;5.43;2.70;;;;;;;-1.62;59.90;100380.50;6190131;23;20582;-87
2022/01/14 00:50:21;;;;;;;4.77;3.00;;;;;;;-1.50;59.49;100382.41;6216539;23;20228;-87
2022/01/14 00:52:48;;;;;;;12.70;3.07;;;;;;;-1.38;58.83;100388.59;6216337;23;20841;-87
2022/01/14 00:55:18;;;;;;;9.80;2.70;;;;;;;-1.49;58.88;100379.84;6190090;23;20161;-87
2022/01/14 01:00:25;;;;;;;7.00;3.50;;;;;;;-1.52;58.88;100376.41;6216940;23;20436;-87
2022/01/14 01:02:51;;;;;;;4.10;2.77;;;;;;;-1.58;59.36;100368.56;6216162;23;20377;-87
2022/01/14 01:05:18;;;;;;;3.57;3.07;;;;;;;-1.54;59.09;100371.22;6216143;23;20818;-87
2022/01/14 01:07:47;;;;;;;7.47;5.07;;;;;;;-1.50;59.06;100365.28;6216817;23;20146;-87
2022/01/14 01:10:13;;;;;;;8.27;3.30;;;;;;;-1.44;58.86;100359.38;6189881;23;20421;-87
2022/01/14 01:12:55;;;;;;;13.07;3.27;;;;;;;-1.42;58.67;100360.25;6189806;23;20697;-87
2022/01/14 01:15:21;;;;;;;8.10;3.10;;;;;;;-1.46;59.16;100353.31;6189786;23;20174;-86
2022/01/14 01:17:48;;;;;;;10.33;4.27;;;;;;;-1.48;59.06;100348.16;6216048;23;20863;-87
2022/01/14 01:20:18;;;;;;;2.70;1.30;;;;;;;-1.45;59.10;100342.22;6216059;23;20142;-87
2022/01/14 01:22:50;;;;;;;7.03;3.93;;;;;;;-1.48;59.31;100332.75;6215787;23;20386;-87
2022/01/14 01:25:20;;;;;;;6.67;2.73;;;;;;;-1.48;59.61;100334.44;6216319;23;20746;-87
2022/01/14 01:27:47;;;;;;;3.43;2.37;;;;;;;-1.50;59.59;100318.13;6190407;23;20726;-87
2022/01/14 01:33:03;;;;;;;12.23;4.40;;;;;;;-1.54;59.62;100306.06;6155210;23;20436;-87
2022/01/14 01:35:29;;;;;;;5.83;2.57;;;;;;;-1.63;59.85;100311.09;6189661;23;20448;-87
2022/01/14 01:37:55;;;;;;;3.57;2.10;;;;;;;-1.63;59.73;100309.38;6215861;23;20699;-87
2022/01/14 01:40:22;;;;;;;3.87;1.67;;;;;;;-1.55;59.51;100318.09;6189953;23;20434;-86
2022/01/14 01:42:48;;;;;;;10.07;3.77;;;;;;;-1.51;59.11;100311.25;6189671;23;20158;-87
2022/01/14 01:45:20;;;;;;;3.73;2.30;;;;;;;-1.62;59.29;100307.66;6216461;23;20528;-87
2022/01/14 01:47:50;;;;;;;2.73;1.93;;;;;;;-1.67;59.63;100296.44;6216189;23;20396;-87
2022/01/14 01:50:19;;;;;;;10.67;3.97;;;;;;;-1.72;60.01;100298.09;6215724;23;20511;-86
2022/01/14 01:52:45;;;;;;;5.37;2.73;;;;;;;-1.69;59.63;100298.13;6215959;23;20739;-87
2022/01/14 01:55:12;;;;;;;5.93;4.17;;;;;;;-1.69;59.65;100286.16;6215679;23;20376;-87
2022/01/14 01:57:37;;;;;;;2.90;2.17;;;;;;;-1.67;59.63;100276.75;6215717;23;20150;-87
2022/01/14 02:00:05;;;;;;;8.90;1.93;;;;;;;-1.65;59.26;100275.06;6215681;23;20440;-87
2022/01/14 02:02:31;;;;;;;14.53;4.07;;;;;;;-1.72;59.79;100275.81;6215536;23;20146;-87
2022/01/14 02:04:57;;;;;;;2.20;1.70;;;;;;;-1.75;60.27;100273.22;6189781;23;20377;-87
2022/01/14 02:07:22;;;;;;;12.73;2.03;;;;;;;-1.77;59.94;100279.16;6215946;23;20604;-87
2022/01/14 02:09:48;;;;;;;11.23;2.37;;;;;;;-1.76;60.13;100275.78;6215447;23;20425;-87
2022/01/14 02:12:13;;;;;;;2.47;1.33;;;;;;;-1.74;60.11;100274.06;6215539;23;20205;-87
2022/01/14 02:22:09;;;;;;;3.20;2.47;;;;;;;-1.76;60.43;100288.63;6215935;23;20134;-87
2022/01/14 02:22:53;;;;;;;5.40;2.93;;;;;;;-1.88;60.24;100279.88;6215434;23;20679;-87
2022/01/14 02:25:28;;;;;;;2.60;1.50;;;;;;;-1.90;60.53;100271.28;6216148;23;20377;-87
2022/01/14 02:28:02;;;;;;;2.57;1.97;;;;;;;-1.94;60.15;100272.06;6215561;23;20420;-86
2022/01/14 02:30:30;;;;;;;4.30;2.37;;;;;;;-1.93;60.21;100260.09;6215984;23;20405;-86
2022/01/14 02:32:56;;;;;;;2.07;1.80;;;;;;;-2.12;60.59;100253.78;6189523;23;20869;-86
2022/01/14 02:35:22;;;;;;;3.03;1.97;;;;;;;-2.16;61.33;100259.75;6215038;23;20460;-87
2022/01/14 02:37:48;;;;;;;3.70;2.67;;;;;;;-2.14;61.21;100254.63;6215426;23;20404;-86
2022/01/14 02:40:14;;;;;;;4.63;2.70;;;;;;;-2.18;61.28;100255.41;6189297;23;20182;-87
2022/01/14 02:42:39;;;;;;;6.10;1.27;;;;;;;-2.18;61.41;100247.72;6215446;23;20150;-87
2022/01/14 02:45:07;;;;;;;1.23;1.13;;;;;;;-2.15;61.37;100238.34;6215486;23;20458;-86
2022/01/14 02:47:33;;;;;;;3.50;2.10;;;;;;;-2.11;61.23;100222.16;6215764;23;20197;-87
2022/01/14 02:49:59;;;;;;;6.20;2.37;;;;;;;-2.26;62.28;100218.47;6189106;23;20742;-86
2022/01/14 02:53:25;;;;;;;5.97;3.10;;;;;;;-2.21;61.89;100212.59;6215407;23;20157;-86
2022/01/14 02:55:16;;;;;;;2.97;2.67;;;;;;;-2.17;61.96;100204.06;6204335;23;20149;-86
2022/01/14 02:57:44;;;;;;;1.93;1.67;;;;;;;-2.15;62.07;100196.41;6215746;23;20373;-86
2022/01/14 03:00:11;;;;;;;5.27;2.30;;;;;;;-2.18;62.00;100191.22;6215348;23;20443;-86
2022/01/14 03:02:39;;;;;;;6.97;3.13;;;;;;;-2.19;62.43;100189.47;6189122;23;20405;-86
2022/01/14 03:05:05;;;;;;;20.63;4.17;;;;;;;-2.17;62.08;100183.53;6215624;23;20832;-86
2022/01/14 03:07:31;;;;;;;16.43;4.20;;;;;;;-2.17;62.14;100178.38;6188994;23;20392;-86
2022/01/14 03:09:56;;;;;;;4.13;1.77;;;;;;;-2.19;61.52;100182.66;6215520;23;20420;-86
2022/01/14 03:12:23;;;;;;;2.53;2.03;;;;;;;-2.22;61.97;100177.47;6189115;23;20516;-86
2022/01/14 03:14:48;;;;;;;2.07;1.83;;;;;;;-2.22;61.76;100179.16;6188940;23;20197;-86
2022/01/14 03:17:13;;;;;;;2.37;1.30;;;;;;;-2.26;61.63;100173.13;6216001;23;20361;-86
2022/01/14 03:19:39;;;;;;;5.13;2.70;;;;;;;-2.42;61.88;100168.59;6189102;23;20154;-86
2022/01/14 03:22:18;;;;;;;11.77;3.97;;;;;;;-2.28;61.87;100161.94;6215715;23;20157;-86
2022/01/14 03:27:10;;;;;;;3.73;2.93;;;;;;;-2.27;61.54;100162.81;6215673;23;20391;-86
2022/01/14 03:29:35;;;;;;;8.07;2.00;;;;;;;-2.41;61.51;100147.22;6215187;23;20326;-86
2022/01/14 03:32:01;;;;;;;6.07;1.97;;;;;;;-2.52;61.96;100151.34;6215343;23;20146;-86
2022/01/14 03:34:27;;;;;;;1.93;1.70;;;;;;;-2.46;61.98;100143.72;6189103;23;20154;-86
2022/01/14 03:36:52;;;;;;;3.43;2.27;;;;;;;-2.45;62.17;100140.31;6189228;23;20861;-86
2022/01/14 03:39:18;;;;;;;3.07;2.07;;;;;;;-2.42;62.16;100126.66;6215952;23;20173;-86
2022/01/14 03:41:45;;;;;;;2.43;2.23;;;;;;;-2.40;61.70;100113.00;6215928;23;20562;-86
2022/01/14 03:44:10;;;;;;;1.97;1.63;;;;;;;-2.33;61.77;100114.81;6215568;23;20373;-86
2022/01/14 03:46:36;;;;;;;2.10;1.90;;;;;;;-2.37;61.35;100114.75;6189678;23;20393;-86
2022/01/14 03:49:01;;;;;;;6.60;3.13;;;;;;;-2.38;61.54;100119.03;6190749;23;20212;-86
2022/01/14 03:51:28;;;;;;;5.73;2.80;;;;;;;-2.53;61.62;100121.38;6217263;23;20235;-86
2022/01/14 03:53:54;;;;;;;3.37;2.07;;;;;;;-2.47;61.75;100113.75;6190761;23;20229;-86
2022/01/14 03:56:19;;;;;;;4.93;3.17;;;;;;;-2.43;61.35;100112.94;6190688;23;20464;-87
2022/01/14 03:58:45;;;;;;;3.87;2.87;;;;;;;-2.49;61.58;100107.75;6190739;23;20480;-86
2022/01/14 04:01:12;;;;;;;3.80;2.60;;;;;;;-2.48;61.17;100114.59;6190716;23;20471;-86
2022/01/14 04:03:38;;;;;;;5.93;2.33;;;;;;;-2.50;61.23;100117.16;6216849;23;20479;-86
2022/01/14 04:06:04;;;;;;;7.63;2.00;;;;;;;-2.49;61.18;100113.72;6190622;23;20930;-86
2022/01/14 04:08:30;;;;;;;1.70;1.60;;;;;;;-2.46;61.02;100112.91;6217269;23;20419;-86
2022/01/14 04:10:57;;;;;;;2.30;2.10;;;;;;;-2.45;61.43;100121.47;6216673;23;20899;-86
2022/01/14 04:13:37;;;;;;;5.70;3.00;;;;;;;-2.52;61.56;100113.66;6216805;23;20376;-86
2022/01/14 04:16:03;;;;;;;3.03;2.73;;;;;;;-2.50;60.95;100123.97;6190418;23;20400;-86
2022/01/14 04:18:28;;;;;;;2.73;2.50;;;;;;;-2.59;61.29;100126.38;6217073;23;20452;-86
2022/01/14 04:20:54;;;;;;;1.90;1.53;;;;;;;-2.59;61.31;100140.09;6190883;23;20377;-86
2022/01/14 04:23:22;;;;;;;4.40;1.70;;;;;;;-2.63;61.80;100135.75;6216733;23;20232;-86
2022/01/14 04:25:53;;;;;;;1.67;1.37;;;;;;;-2.63;61.59;100129.75;6216623;23;20211;-86
2022/01/14 04:28:30;;;;;;;2.07;1.63;;;;;;;-2.65;62.13;100116.91;6217012;23;20373;-86
2022/01/14 04:30:56;;;;;;;3.33;2.07;;;;;;;-2.70;62.82;100125.38;6190426;23;20491;-86
2022/01/14 04:33:28;;;;;;;3.10;2.23;;;;;;;-2.73;62.46;100122.75;6190394;23;20439;-86
2022/01/14 04:35:54;;;;;;;1.90;1.47;;;;;;;-2.85;63.11;100120.84;6190304;23;20384;-86
2022/01/14 04:38:21;;;;;;;18.33;2.70;;;;;;;-2.98;63.89;100118.03;6216447;23;20373;-86
2022/01/14 04:40:46;;;;;;;4.63;1.37;;;;;;;-2.89;63.55;100120.78;6216479;23;20491;-86
2022/01/14 04:43:15;;;;;;;3.53;1.93;;;;;;;-2.73;63.32;100118.50;6190294;23;20432;-86
2022/01/14 04:45:53;;;;;;;3.90;2.57;;;;;;;-2.68;63.21;100113.44;6216863;23;20146;-87
2022/01/14 04:48:19;;;;;;;2.37;2.17;;;;;;;-2.71;63.34;100108.25;6190284;23;20381;-86
2022/01/14 04:50:44;;;;;;;4.33;2.63;;;;;;;-2.53;63.11;100096.56;6216372;23;20417;-86
2022/01/14 04:53:11;;;;;;;0.93;0.73;;;;;;;-2.43;62.42;100102.69;6190112;23;20524;-86
2022/01/14 04:55:36;;;;;;;3.33;2.07;;;;;;;-2.52;62.58;100100.00;6190098;23;20154;-86
2022/01/14 04:58:02;;;;;;;5.60;1.00;;;;;;;-2.58;63.08;100089.63;6215975;23;20377;-86
2022/01/14 05:00:28;;;;;;;7.50;2.63;;;;;;;-2.63;63.04;100081.00;6190067;23;20224;-86
2022/01/14 05:02:55;;;;;;;7.07;2.30;;;;;;;-2.65;63.10;100077.56;6216312;23;20702;-86
2022/01/14 05:05:24;;;;;;;3.67;2.67;;;;;;;-2.54;63.29;100081.13;6216633;23;20146;-86
2022/01/14 05:07:50;;;;;;;2.00;1.40;;;;;;;-2.51;63.01;100082.03;6189952;23;20401;-86
2022/01/14 05:12:45;;;;;;;4.30;2.43;;;;;;;-2.41;62.52;100095.88;6216931;23;20894;-86
2022/01/14 05:15:13;;;;;;;2.40;1.80;;;;;;;-2.27;62.31;100096.94;6189854;23;20404;-86
2022/01/14 05:17:38;;;;;;;4.47;2.80;;;;;;;-2.25;62.39;100096.94;6189911;23;20573;-86
2022/01/14 05:20:05;;;;;;;7.33;2.10;;;;;;;-2.17;61.89;100096.22;6216173;23;20403;-86
2022/01/14 05:22:31;;;;;;;1.97;1.73;;;;;;;-2.10;61.79;100094.59;6216817;23;20146;-86
2022/01/14 05:24:56;;;;;;;2.07;1.83;;;;;;;-2.31;61.27;100092.63;6189818;23;20392;-86
2022/01/14 05:27:22;;;;;;;1.47;1.30;;;;;;;-2.37;61.67;100092.53;6189959;23;20156;-86
2022/01/14 05:29:47;;;;;;;0.77;0.77;;;;;;;-2.33;62.14;100085.72;6215999;23;20146;-86
2022/01/14 05:32:14;;;;;;;2.10;1.43;;;;;;;-2.26;61.74;100083.25;6189784;23;20312;-86
2022/01/14 05:34:43;;;;;;;4.57;1.50;;;;;;;-2.24;61.56;100073.00;6189918;23;20656;-86
2022/01/14 05:37:09;;;;;;;0.50;0.50;;;;;;;-2.23;61.59;100075.63;6215969;23;20389;-86
2022/01/14 05:39:35;;;;;;;2.60;1.47;;;;;;;-2.29;61.48;100072.94;6216147;23;20380;-86
2022/01/14 05:42:03;;;;;;;2.83;1.50;;;;;;;-2.29;61.33;100070.38;6216002;23;20377;-86
2022/01/14 05:44:29;;;;;;;2.43;1.93;;;;;;;-2.30;61.50;100070.34;6216253;23;20165;-86
2022/01/14 05:46:56;;;;;;;4.00;2.00;;;;;;;-2.38;61.73;100072.81;6216576;23;20373;-86
2022/01/14 05:49:22;;;;;;;5.10;1.83;;;;;;;-2.36;61.70;100063.44;6189983;23;20381;-86
2022/01/14 05:51:48;;;;;;;2.53;1.37;;;;;;;-2.32;61.65;100060.06;6215812;23;20417;-86
2022/01/14 05:54:15;;;;;;;3.40;1.47;;;;;;;-2.39;62.17;100060.84;6215919;23;20150;-86
2022/01/14 05:56:41;;;;;;;3.57;1.77;;;;;;;-2.36;62.04;100065.16;6189652;23;20380;-86
2022/01/14 05:59:07;;;;;;;3.57;2.40;;;;;;;-2.42;62.12;100057.34;6189583;23;20474;-86
2022/01/14 06:01:33;;;;;;;5.17;3.10;;;;;;;-2.46;62.37;100056.44;6215843;23;20153;-86
2022/01/14 06:04:00;;;;;;;4.07;3.10;;;;;;;-2.31;62.09;100069.50;6189523;23;20389;-86
2022/01/14 06:06:26;;;;;;;3.20;2.90;;;;;;;-2.48;61.89;100055.56;6189627;23;20220;-86
2022/01/14 06:08:51;;;;;;;5.57;3.70;;;;;;;-2.51;61.99;100052.94;6215683;23;20376;-86
2022/01/14 06:11:18;;;;;;;2.77;2.27;;;;;;;-2.41;62.19;100054.78;6216007;23;20177;-86
2022/01/14 06:13:44;;;;;;;6.53;3.03;;;;;;;-2.40;62.62;100047.97;6189567;23;20153;-86
2022/01/14 06:16:10;;;;;;;2.53;2.33;;;;;;;-2.32;62.32;100046.38;6215628;23;20451;-86
2022/01/14 06:18:35;;;;;;;5.03;2.93;;;;;;;-2.27;62.33;100053.28;6189399;23;20880;-86
2022/01/14 06:21:01;;;;;;;8.30;3.67;;;;;;;-2.22;62.82;100045.63;6189465;23;20570;-86
2022/01/14 06:23:26;;;;;;;9.40;3.63;;;;;;;-2.21;62.43;100039.66;6215656;23;20546;-86
2022/01/14 06:25:52;;;;;;;8.27;5.33;;;;;;;-2.14;62.59;100038.91;6215667;23;20150;-86
2022/01/14 06:28:17;;;;;;;18.97;3.57;;;;;;;-2.04;62.11;100041.59;6215967;23;20150;-86
2022/01/14 06:30:43;;;;;;;4.07;3.67;;;;;;;-1.98;62.47;100035.66;6215806;23;20174;-86
2022/01/14 06:33:08;;;;;;;1.77;1.50;;;;;;;-1.94;62.07;100025.44;6215457;23;20146;-86
2022/01/14 06:35:34;;;;;;;3.17;2.40;;;;;;;-1.65;62.80;100024.91;6215622;23;20145;-86
2022/01/14 06:38:00;;;;;;;6.80;2.70;;;;;;;-1.19;62.04;100027.06;6215548;23;20225;-87
2022/01/14 06:40:27;;;;;;;3.43;3.07;;;;;;;-0.74;61.67;100021.41;6215573;23;20519;-87
2022/01/14 06:42:53;;;;;;;7.40;2.33;;;;;;;-0.39;60.50;100019.88;6189347;23;20165;-86
2022/01/14 06:45:19;;;;;;;11.10;3.43;;;;;;;-0.13;59.16;100012.31;6189124;23;20388;-87
2022/01/14 06:47:45;;;;;;;7.97;3.67;;;;;;;-0.01;58.66;100008.06;6215846;23;20497;-87
2022/01/14 06:50:10;;;;;;;11.97;4.10;;;;;;;-0.02;58.24;100005.47;6189127;23;20429;-87
2022/01/14 06:52:36;;;;;;;7.53;2.97;;;;;;;0.11;57.32;99996.03;6215499;23;20158;-86
2022/01/14 06:55:02;;;;;;;4.37;3.00;;;;;;;0.21;57.25;99992.66;6189294;23;20220;-87
2022/01/14 06:57:27;;;;;;;15.43;4.77;;;;;;;0.32;57.29;99993.53;6215429;23;20582;-86
2022/01/14 06:59:53;;;;;;;10.63;4.13;;;;;;;0.38;56.99;99981.50;6215761;23;20517;-87
2022/01/14 07:02:18;;;;;;;10.17;4.83;;;;;;;0.46;56.21;99989.25;6189251;23;20150;-86
2022/01/14 07:04:44;;;;;;;8.00;4.00;;;;;;;0.63;55.77;99993.56;6215472;23;20151;-87
2022/01/14 07:07:09;;;;;;;6.23;3.93;;;;;;;0.68;55.96;99993.59;6215473;23;20218;-87
2022/01/14 07:09:35;;;;;;;10.17;4.97;;;;;;;0.70;55.67;99991.00;6215998;23;20229;-88
2022/01/14 07:12:02;;;;;;;7.93;4.03;;;;;;;0.81;55.56;99999.63;6216083;23;20147;-88
2022/01/14 07:14:29;;;;;;;18.73;4.87;;;;;;;1.01;55.26;99997.88;6189037;23;20247;-88
2022/01/14 07:16:55;;;;;;;11.50;3.60;;;;;;;1.11;55.17;99994.44;6189267;23;20374;-88
2022/01/14 07:19:22;;;;;;;19.07;3.97;;;;;;;1.24;55.55;100001.31;6189080;23;20387;-88
2022/01/14 07:21:48;;;;;;;6.67;3.37;;;;;;;1.43;55.43;99995.25;6189990;23;20379;-88
2022/01/14 07:24:14;;;;;;;7.27;3.53;;;;;;;1.53;53.69;99991.78;6217679;23;20383;-88
2022/01/14 07:26:40;;;;;;;3.80;3.00;;;;;;;1.63;53.30;99990.88;6217229;23;20154;-88
2022/01/14 07:29:07;;;;;;;8.27;3.30;;;;;;;1.79;53.50;99982.22;6217225;23;20163;-89
2022/01/14 07:31:32;;;;;;;5.03;2.87;;;;;;;1.71;53.21;99980.50;6217548;23;20428;-89
2022/01/14 07:33:58;;;;;;;14.60;4.93;;;;;;;1.74;53.08;99973.63;6217916;23;20393;-89
2022/01/14 07:36:23;;;;;;;8.60;4.17;;;;;;;1.77;52.53;99970.16;6217211;23;20153;-90
2022/01/14 07:38:49;;;;;;;8.97;4.63;;;;;;;1.74;52.96;99954.66;6190954;23;20168;-90
2022/01/14 07:41:15;;;;;;;18.03;5.10;;;;;;;1.55;53.43;99943.53;6190996;23;20201;-90
2022/01/14 07:43:46;;;;;;;7.53;3.00;;;;;;;1.27;54.39;99941.91;6217057;23;20156;-90
2022/01/14 07:46:11;;;;;;;14.47;7.53;;;;;;;1.20;54.33;99941.06;6190923;23;20150;-90
2022/01/14 07:48:36;;;;;;;14.57;5.90;;;;;;;1.24;54.17;99941.91;6191251;23;20480;-90
2022/01/14 07:51:02;;;;;;;15.33;7.00;;;;;;;1.23;54.47;99927.28;6190850;23;20290;-91
2022/01/14 07:53:27;;;;;;;13.90;6.37;;;;;;;1.27;55.09;99928.13;6191036;23;20616;-91
2022/01/14 07:55:53;;;;;;;8.77;4.77;;;;;;;1.01;55.38;99920.44;6217090;23;20616;-92
2022/01/14 07:58:18;;;;;;;4.60;3.50;;;;;;;1.17;56.37;99927.31;6191038;23;20454;-91
2022/01/14 08:00:44;;;;;;;7.50;3.83;;;;;;;1.17;55.97;99914.41;6191085;23;20187;-92
2022/01/14 08:03:09;;;;;;;15.80;5.33;;;;;;;1.31;56.33;99911.78;6217208;23;20150;-92
2022/01/14 08:05:35;;;;;;;32.67;12.60;;;;;;;1.29;55.60;99916.06;6217180;23;20209;-92
2022/01/14 08:08:05;;;;;;;6.70;4.20;;;;;;;1.54;57.12;99920.31;6191129;23;20185;-92
2022/01/14 08:10:31;;;;;;;4.90;3.23;;;;;;;1.77;56.81;99913.31;6216977;23;20226;-92
2022/01/14 08:12:56;;;;;;;7.63;4.20;;;;;;;1.95;56.21;99912.34;6191013;23;20161;-92
2022/01/14 08:15:23;;;;;;;5.63;3.10;;;;;;;2.18;55.58;99895.81;6191359;23;20173;-91
2022/01/14 08:17:49;;;;;;;9.70;3.70;;;;;;;2.41;55.58;99887.91;6216858;23;20156;-91
2022/01/14 08:20:15;;;;;;;8.77;4.07;;;;;;;2.63;55.80;99898.91;6190774;23;20479;-90
2022/01/14 08:22:40;;;;;;;4.90;2.30;;;;;;;2.75;53.67;99893.66;6216690;23;20864;-90
2022/01/14 08:25:09;;;;;;;6.43;4.03;;;;;;;2.87;53.58;99896.09;6216757;23;20597;-90
2022/01/14 08:27:35;;;;;;;7.70;3.80;;;;;;;3.08;53.25;99878.63;6190538;23;20153;-90
2022/01/14 08:30:01;;;;;;;9.70;3.20;;;;;;;3.19;53.06;99875.94;6217555;23;20235;-90
2022/01/14 08:32:26;;;;;;;7.57;2.97;;;;;;;3.21;52.57;99878.50;6189943;23;20501;-90
2022/01/14 08:34:52;;;;;;;12.30;4.10;;;;;;;3.39;53.48;99868.78;6190281;23;20161;-90
2022/01/14 08:37:17;;;;;;;6.47;3.77;;;;;;;3.46;53.26;99849.66;6216933;23;20230;-90
2022/01/14 08:39:43;;;;;;;8.03;4.20;;;;;;;3.57;53.12;99841.75;6190596;23;20164;-89
2022/01/14 08:42:10;;;;;;;7.13;3.80;;;;;;;3.86;53.50;99852.59;6191017;23;20153;-89
2022/01/14 08:44:38;;;;;;;9.30;3.53;;;;;;;3.89;51.50;99844.78;6216464;23;20459;-90
2022/01/14 08:47:09;;;;;;;6.43;2.77;;;;;;;4.23;50.04;99835.59;6190195;23;20161;-90
2022/01/14 08:49:35;;;;;;;6.67;3.17;;;;;;;4.48;50.34;99835.22;6217176;23;20137;-91
2022/01/14 08:52:00;;;;;;;7.87;4.10;;;;;;;4.50;49.61;99838.63;6190055;23;20196;-90
2022/01/14 08:54:26;;;;;;;5.17;3.47;;;;;;;4.70;50.11;99831.34;6190300;23;20158;-91
2022/01/14 08:56:51;;;;;;;8.40;2.73;;;;;;;4.98;48.68;99830.81;6190622;23;20152;-91
2022/01/14 08:59:17;;;;;;;8.53;4.17;;;;;;;5.04;46.89;99827.25;6190595;23;20153;-91
2022/01/14 09:01:43;;;;;;;9.30;3.80;;;;;;;5.18;46.63;99813.97;6190898;23;20151;-91
2022/01/14 09:04:09;;;;;;;9.90;4.20;;;;;;;5.32;47.13;99807.59;6216976;23;20161;-92
2022/01/14 09:06:34;;;;;;;12.67;4.77;;;;;;;5.24;47.07;99793.91;6216358;23;20581;-91
2022/01/14 09:09:00;;;;;;;11.50;4.67;;;;;;;5.45;46.28;99798.66;6216653;23;20220;-91
2022/01/14 09:11:25;;;;;;;5.47;3.87;;;;;;;5.43;46.31;99783.97;6189940;23;20244;-91
2022/01/14 09:13:51;;;;;;;10.57;4.20;;;;;;;5.52;44.94;99779.47;6216472;23;20150;-91
2022/01/14 09:16:20;;;;;;;10.80;4.53;;;;;;;5.64;45.14;99764.44;6216295;23;20239;-92
2022/01/14 09:18:46;;;;;;;9.43;5.90;;;;;;;5.81;45.38;99760.59;6190028;23;20483;-90
2022/01/14 09:21:12;;;;;;;16.90;6.23;;;;;;;5.94;44.67;99763.78;6190033;23;20598;-91
2022/01/14 09:23:37;;;;;;;16.80;7.13;;;;;;;6.14;45.35;99759.81;6216288;23;20248;-93
2022/01/14 09:26:03;;;;;;;15.97;7.07;;;;;;;6.28;44.72;99751.66;6216741;23;20146;-94
2022/01/14 09:28:29;;;;;;;15.67;6.67;;;;;;;6.42;44.00;99740.88;6190045;23;20154;-91
2022/01/14 09:30:55;;;;;;;15.60;5.73;;;;;;;6.54;43.67;99745.75;6216341;23;20222;-94
2022/01/14 09:33:21;;;;;;;12.03;4.73;;;;;;;6.69;43.88;99730.56;6191017;23;20153;-92
2022/01/14 09:35:49;;;;;;;16.73;4.87;;;;;;;6.86;43.22;99718.84;6190207;23;20456;-94
2022/01/14 09:38:14;;;;;;;9.93;4.67;;;;;;;6.83;42.32;99714.56;6190016;23;20192;-92
2022/01/14 09:41:11;;;;;;;12.83;5.40;;;;;;;6.98;42.42;99714.13;6190291;23;20150;-95
2022/01/14 09:58:10;;;;;;;8.70;3.80;;;;;;;7.78;41.86;99674.28;6151456;23;20158;-95
2022/01/14 10:01:54;;;;;;;9.07;2.40;;;;;;;7.95;40.88;99670.19;6145547;23;20551;-95
2022/01/14 10:05:24;;;;;;;;;;;;;;;;;;;;;
2022/01/14 10:08:20;;;;;;;6.33;2.83;;;;;;;8.03;40.61;99662.97;5963444;23;20512;-94
2022/01/14 10:11:36;;;;;;;;;;;;;;;;;;;;;
2022/01/14 10:14:23;;;;;;;8.93;3.00;;;;;;;8.22;41.17;99642.28;6030302;23;20241;-95
2022/01/14 10:17:24;;;;;;;7.20;3.70;;;;;;;8.38;40.89;99632.19;6042956;23;20224;-95
2022/01/14 10:19:52;;;;;;;6.40;3.00;;;;;;;8.50;40.08;99626.50;6176312;23;20207;-94
2022/01/14 10:22:34;;;;;;;8.67;3.67;;;;;;;8.33;39.37;99623.66;6189821;23;20233;-93
2022/01/14 10:25:08;;;;;;;13.27;3.10;;;;;;;8.48;40.56;99613.53;6189896;23;20164;-94
2022/01/14 10:31:47;;;;;;;5.57;2.87;;;;;;;8.43;40.53;99607.63;6125020;23;20708;-95
2022/01/14 10:34:25;;;;;;;10.00;3.53;;;;;;;8.44;40.72;99587.53;6102475;23;20159;-95
2022/01/14 10:37:10;;;;;;;8.03;3.53;;;;;;;8.53;41.37;99585.47;6100784;23;20154;-94
2022/01/14 10:40:03;;;;;;;8.83;2.53;;;;;;;8.74;41.50;99578.56;6100594;23;20145;-93
2022/01/14 10:42:37;;;;;;;7.70;3.37;;;;;;;8.87;41.72;99582.41;6100799;23;20162;-96
2022/01/14 10:45:22;;;;;;;8.17;3.33;;;;;;;8.83;41.70;99570.34;6100596;23;20154;-96
2022/01/14 10:48:08;;;;;;;6.23;3.17;;;;;;;8.94;42.42;99564.72;6128741;23;20191;-96
2022/01/14 10:50:44;;;;;;;5.00;2.50;;;;;;;9.07;41.93;99555.47;6189930;23;20188;-95
2022/01/14 10:53:59;;;;;;;7.37;3.20;;;;;;;9.28;42.18;99558.09;6191198;23;20533;-95
2022/01/14 10:56:55;;;;;;;6.77;2.40;;;;;;;9.37;42.11;99542.94;6215427;23;20166;-96
2022/01/14 11:02:52;;;;;;;;;;;;;;;;;;;;;
2022/01/14 11:05:28;;;;;;;8.17;3.00;;;;;;;9.67;43.53;99525.97;6218296;23;20181;-95
2022/01/14 11:08:02;;;;;;;7.93;3.63;;;;;;;9.77;43.70;99515.00;6191477;23;20169;-93
2022/01/14 11:10:45;;;;;;;5.63;2.70;;;;;;;9.70;44.50;99513.59;6191491;23;20173;-94
2022/01/14 11:13:11;;;;;;;5.23;2.40;;;;;;;9.48;44.83;99514.56;6218353;23;20144;-93
2022/01/14 11:15:37;;;;;;;5.93;2.60;;;;;;;9.42;46.22;99514.81;6191067;23;20173;-92
2022/01/14 11:18:05;;;;;;;10.27;3.10;;;;;;;9.37;45.90;99493.22;6217822;23;20224;-93
2022/01/14 11:20:37;;;;;;;6.77;2.63;;;;;;;9.42;46.80;99489.50;6191690;23;20153;-93
2022/01/14 11:23:15;;;;;;;8.90;3.20;;;;;;;9.47;47.03;99484.06;6191370;23;20154;-92
2022/01/14 11:25:54;;;;;;;7.87;2.20;;;;;;;9.50;47.41;99471.72;6191151;23;20148;-91
2022/01/14 11:28:27;;;;;;;8.73;3.50;;;;;;;9.70;46.88;99460.38;6190985;23;20215;-90
2022/01/14 11:32:14;;;;;;;6.83;2.77;;;;;;;9.58;47.03;99464.41;6191112;23;20189;-92
2022/01/14 11:35:00;;;;;;;9.20;2.83;;;;;;;9.32;46.72;99451.59;6189132;23;20169;-95
2022/01/14 11:37:41;;;;;;;6.90;3.40;;;;;;;9.40;47.13;99446.88;6188676;23;20157;-94
2022/01/14 12:27:05;;;;;;;;;;;;;;;;;;;;;
2022/01/14 12:41:23;;;;;;;6.33;2.83;;;;;;;11.24;44.64;99353.34;5861768;24;20247;-92
2022/01/14 12:44:25;;;;;;;7.33;3.40;;;;;;;11.39;43.37;99344.69;5816107;24;20234;-91
2022/01/14 12:50:36;;;;;;;7.40;2.37;;;;;;;11.41;42.44;99340.22;5999152;23;20199;-91
2022/01/14 12:53:11;;;;;;;6.30;2.67;;;;;;;11.32;43.04;99330.19;6190290;23;20153;-90
2022/01/14 12:59:17;;;;;;;12.57;3.77;;;;;;;11.00;42.77;99331.03;6190679;23;20236;-90
2022/01/14 13:02:10;;;;;;;;;;;;;;;;;;;;;
2022/01/14 13:07:47;;;;;;;6.23;2.77;;;;;;;11.03;43.26;99315.97;6193301;23;20231;-90
2022/01/14 13:10:30;;;;;;;;;;;;;;;;;;;;;
2022/01/14 13:13:45;;;;;;;;;;;;;;;;;;;;;
2022/01/14 13:16:13;;;;;;;9.07;4.70;;;;;;;10.98;42.38;99311.88;6198058;23;20224;-90
2022/01/14 13:18:57;;;;;;;;;;;;;;;;;;;;;
2022/01/14 13:21:43;;;;;;;7.00;2.77;;;;;;;11.05;43.30;99305.41;6216865;23;20529;-89
2022/01/14 13:24:24;;;;;;;9.70;3.10;;;;;;;11.28;42.27;99304.19;6216257;23;20146;-91
2022/01/14 13:27:16;;;;;;;7.00;3.73;;;;;;;11.17;41.84;99294.25;6190208;23;20158;-91
2022/01/14 13:29:45;;;;;;;9.30;4.43;;;;;;;11.15;41.73;99296.13;6216050;23;20203;-90
2022/01/14 13:32:13;;;;;;;10.50;5.07;;;;;;;10.98;42.11;99294.38;6189718;23;20492;-90
2022/01/14 13:34:58;;;;;;;24.17;10.50;;;;;;;10.83;41.66;99286.44;6189861;23;20164;-90
2022/01/14 13:37:27;;;;;;;13.93;5.30;;;;;;;10.81;42.08;99277.81;6216088;23;20232;-90
2022/01/14 13:40:11;;;;;;;8.50;3.87;;;;;;;10.91;39.93;99284.28;6189886;23;20192;-90
2022/01/14 13:42:39;;;;;;;9.33;3.97;;;;;;;10.90;40.48;99283.41;6216302;23;20476;-90
2022/01/14 13:45:19;;;;;;;6.07;3.27;;;;;;;11.00;40.58;99287.28;6215920;23;20146;-89
2022/01/14 13:47:55;;;;;;;11.07;3.87;;;;;;;11.16;40.97;99274.22;6189778;23;20146;-89